createdAt,value
2022-11-08T00:01:53.899Z,3.05
2022-11-08T00:04:28.126Z,3.07
2022-11-08T00:07:18.530Z,3.08
2022-11-08T00:10:09.372Z,3.05
2022-11-08T00:13:00.712Z,3.05
2022-11-08T00:15:38.455Z,3.05
2022-11-08T00:18:12.492Z,3.05
2022-11-08T00:20:45.263Z,3.05
2022-11-08T00:23:18.244Z,3.06
2022-11-08T00:25:58.248Z,3.05
2022-11-08T00:28:31.165Z,3.03
2022-11-08T00:31:08.206Z,3.05
2022-11-08T00:33:41.094Z,3.05
2022-11-08T00:36:13.931Z,3.03
2022-11-08T00:38:47.101Z,3.03
2022-11-08T00:41:20.558Z,3.03
2022-11-08T00:43:53.713Z,3.05
2022-11-08T00:46:26.467Z,3.03
2022-11-08T00:48:59.197Z,3.05
2022-11-08T00:51:33.137Z,3.07
2022-11-08T00:54:07.610Z,3.11
2022-11-08T00:56:42.238Z,3.14
2022-11-08T00:59:18.936Z,3.13
2022-11-08T01:01:52.452Z,3.12
2022-11-08T01:04:25.494Z,3.08
2022-11-08T01:06:58.702Z,3.06
2022-11-08T01:09:31.573Z,3.03
2022-11-08T01:12:04.767Z,3.06
2022-11-08T01:14:38.626Z,3.08
2022-11-08T01:17:11.773Z,3.10
2022-11-08T01:19:44.850Z,3.11
2022-11-08T01:22:18.059Z,3.08
2022-11-08T01:24:50.823Z,3.06
2022-11-08T01:27:23.808Z,3.04
2022-11-08T01:29:56.947Z,3.03
2022-11-08T01:32:31.800Z,3.02
2022-11-08T01:35:04.732Z,3.01
2022-11-08T01:37:38.777Z,2.99
2022-11-08T01:40:13.604Z,2.99
2022-11-08T01:42:47.200Z,3.00
2022-11-08T01:45:58.101Z,3.01
2022-11-08T01:48:31.963Z,3.03
2022-11-08T01:51:05.739Z,3.04
2022-11-08T01:53:39.550Z,3.05
2022-11-08T01:56:13.169Z,3.04
2022-11-08T01:58:47.618Z,3.00
2022-11-08T02:01:19.975Z,3.00
2022-11-08T02:03:53.154Z,3.00
2022-11-08T02:06:27.197Z,3.00
2022-11-08T02:09:03.057Z,3.03
2022-11-08T02:11:36.507Z,3.06
2022-11-08T02:14:09.884Z,3.07
2022-11-08T02:16:42.686Z,3.07
2022-11-08T02:19:20.444Z,3.07
2022-11-08T02:21:57.573Z,3.06
2022-11-08T02:24:30.870Z,3.07
2022-11-08T02:27:04.745Z,3.08
2022-11-08T02:29:38.512Z,3.11
2022-11-08T02:32:12.931Z,3.12
2022-11-08T02:34:54.323Z,3.12
2022-11-08T02:37:28.422Z,3.09
2022-11-08T02:40:01.408Z,3.08
2022-11-08T02:42:34.716Z,3.09
2022-11-08T02:45:09.750Z,3.11
2022-11-08T02:47:43.249Z,3.14
2022-11-08T02:50:16.427Z,3.16
2022-11-08T02:52:49.446Z,3.15
2022-11-08T02:55:24.244Z,3.15
2022-11-08T02:57:57.850Z,3.14
2022-11-08T03:00:31.237Z,3.14
2022-11-08T03:03:04.849Z,3.16
2022-11-08T03:05:37.834Z,3.20
2022-11-08T03:08:10.703Z,3.20
2022-11-08T03:10:44.168Z,3.23
2022-11-08T03:13:17.337Z,3.25
2022-11-08T03:15:50.198Z,3.24
2022-11-08T03:18:23.213Z,3.27
2022-11-08T03:20:56.196Z,3.27
2022-11-08T03:23:29.415Z,3.28
2022-11-08T03:26:06.243Z,3.27
2022-11-08T03:28:40.066Z,3.26
2022-11-08T03:31:13.148Z,3.25
2022-11-08T03:33:47.735Z,3.26
2022-11-08T03:36:20.511Z,3.24
2022-11-08T03:38:54.070Z,3.23
2022-11-08T03:41:27.321Z,3.23
2022-11-08T03:44:00.459Z,3.24
2022-11-08T03:46:33.869Z,3.24
2022-11-08T03:49:06.917Z,3.25
2022-11-08T03:51:40.401Z,3.25
2022-11-08T03:54:13.845Z,3.28
2022-11-08T03:56:46.827Z,3.32
2022-11-08T03:59:20.118Z,3.33
2022-11-08T04:01:53.454Z,3.34
2022-11-08T04:04:26.739Z,3.33
2022-11-08T04:06:59.847Z,3.34
2022-11-08T04:09:33.415Z,3.34
2022-11-08T04:12:25.312Z,3.35
2022-11-08T04:15:17.935Z,3.36
2022-11-08T04:18:12.024Z,3.37
2022-11-08T04:21:06.121Z,3.34
2022-11-08T04:23:40.190Z,3.33
2022-11-08T04:26:13.911Z,3.31
2022-11-08T04:28:46.781Z,3.30
2022-11-08T04:31:21.790Z,3.28
2022-11-08T04:33:55.501Z,3.28
2022-11-08T04:36:30.351Z,3.28
2022-11-08T04:39:03.464Z,3.30
2022-11-08T04:41:36.964Z,3.30
2022-11-08T04:44:10.683Z,3.29
2022-11-08T04:46:43.692Z,3.26
2022-11-08T04:49:16.613Z,3.24
2022-11-08T04:51:50.566Z,3.25
2022-11-08T04:54:24.218Z,3.29
2022-11-08T04:56:57.191Z,3.32
2022-11-08T04:59:30.325Z,3.33
2022-11-08T05:02:03.131Z,3.35
2022-11-08T05:04:35.883Z,3.37
2022-11-08T05:07:08.850Z,3.38
2022-11-08T05:09:41.628Z,3.40
2022-11-08T05:12:14.478Z,3.43
2022-11-08T05:14:49.253Z,3.46
2022-11-08T05:17:22.270Z,3.47
2022-11-08T05:20:15.445Z,3.46
2022-11-08T05:23:06.656Z,3.45
2022-11-08T05:25:44.335Z,3.50
2022-11-08T05:28:17.899Z,3.52
2022-11-08T05:30:58.151Z,3.57
2022-11-08T05:33:31.563Z,3.60
2022-11-08T05:36:06.996Z,3.65
2022-11-08T05:38:41.059Z,3.66
2022-11-08T05:41:17.031Z,3.67
2022-11-08T05:43:52.906Z,3.72
2022-11-08T05:46:26.161Z,3.78
2022-11-08T05:48:58.954Z,3.84
2022-11-08T05:51:32.139Z,3.87
2022-11-08T05:54:05.819Z,3.92
2022-11-08T05:56:38.796Z,3.93
2022-11-08T05:59:11.558Z,3.92
2022-11-08T06:01:45.266Z,3.93
2022-11-08T06:04:18.637Z,3.94
2022-11-08T06:06:53.030Z,3.94
2022-11-08T06:09:26.733Z,3.95
2022-11-08T06:12:00.213Z,3.95
2022-11-08T06:14:33.884Z,3.95
2022-11-08T06:17:06.923Z,3.93
2022-11-08T06:19:40.553Z,3.93
2022-11-08T06:22:13.773Z,3.93
2022-11-08T06:24:47.134Z,3.94
2022-11-08T06:27:20.353Z,3.98
2022-11-08T06:29:53.768Z,4.01
2022-11-08T06:32:26.991Z,4.02
2022-11-08T06:35:00.208Z,4.02
2022-11-08T06:37:34.221Z,4.02
2022-11-08T06:40:08.793Z,4.05
2022-11-08T06:42:42.277Z,4.07
2022-11-08T06:45:16.003Z,4.11
2022-11-08T06:47:49.052Z,4.13
2022-11-08T06:50:22.110Z,4.14
2022-11-08T06:53:07.199Z,4.16
2022-11-08T06:55:41.503Z,4.18
2022-11-08T06:58:14.721Z,4.21
2022-11-08T07:00:48.337Z,4.25
2022-11-08T07:03:21.426Z,4.29
2022-11-08T07:05:55.127Z,4.31
2022-11-08T07:08:28.023Z,4.37
2022-11-08T07:11:01.304Z,4.42
2022-11-08T07:13:34.255Z,4.45
2022-11-08T07:16:08.229Z,4.49
2022-11-08T07:18:41.660Z,4.53
2022-11-08T07:21:14.654Z,4.56
2022-11-08T07:23:48.816Z,4.61
2022-11-08T07:26:22.143Z,4.67
2022-11-08T07:28:55.876Z,4.72
2022-11-08T07:31:29.017Z,4.77
2022-11-08T07:34:02.124Z,4.78
2022-11-08T07:36:35.471Z,4.79
2022-11-08T07:39:08.180Z,4.82
2022-11-08T07:41:41.135Z,4.88
2022-11-08T07:44:14.733Z,4.94
2022-11-08T07:46:47.969Z,5.00
2022-11-08T07:49:21.049Z,5.05
2022-11-08T07:51:54.671Z,5.10
2022-11-08T07:54:27.495Z,5.14
2022-11-08T07:57:01.238Z,5.19
2022-11-08T07:59:34.984Z,5.23
2022-11-08T08:02:08.138Z,5.27
2022-11-08T08:04:41.608Z,5.30
2022-11-08T08:07:15.057Z,5.36
2022-11-08T08:09:48.524Z,5.40
2022-11-08T08:12:21.441Z,5.45
2022-11-08T08:14:54.434Z,5.50
2022-11-08T08:17:28.865Z,5.55
2022-11-08T08:20:02.461Z,5.60
2022-11-08T08:22:35.667Z,5.62
2022-11-08T08:25:10.295Z,5.66
2022-11-08T08:27:46.529Z,5.70
2022-11-08T08:30:20.190Z,5.73
2022-11-08T08:33:21.866Z,5.73
2022-11-08T08:35:28.641Z,5.76
2022-11-08T08:38:05.863Z,5.77
2022-11-08T08:40:40.002Z,5.77
2022-11-08T08:43:13.630Z,5.82
2022-11-08T08:45:47.118Z,5.86
2022-11-08T08:48:20.118Z,5.90
2022-11-08T08:50:54.085Z,5.95
2022-11-08T08:53:27.246Z,5.98
2022-11-08T08:56:01.986Z,6.00
2022-11-08T08:58:35.643Z,6.02
2022-11-08T09:03:48.514Z,6.04
2022-11-08T09:06:22.478Z,6.06
2022-11-08T09:08:56.534Z,6.10
2022-11-08T09:11:29.940Z,6.16
2022-11-08T09:14:02.871Z,6.22
2022-11-08T09:16:37.383Z,6.25
2022-11-08T09:19:10.939Z,6.27
2022-11-08T09:21:45.546Z,6.30
2022-11-08T09:24:18.732Z,6.32
2022-11-08T09:26:51.979Z,6.36
2022-11-08T09:29:24.804Z,6.38
2022-11-08T09:31:58.604Z,6.42
2022-11-08T09:34:31.672Z,6.47
2022-11-08T09:37:04.653Z,6.50
2022-11-08T09:39:37.486Z,6.54
2022-11-08T09:42:37.242Z,6.56
2022-11-08T09:45:29.723Z,6.57
2022-11-08T09:48:08.696Z,6.57
2022-11-08T09:50:47.140Z,6.59
2022-11-08T09:54:02.080Z,6.62
2022-11-08T09:56:38.869Z,6.65
2022-11-08T09:59:28.358Z,6.68
2022-11-08T10:02:01.371Z,6.73
2022-11-08T10:04:36.076Z,6.73
2022-11-08T10:07:17.155Z,6.74
2022-11-08T10:10:04.034Z,6.74
2022-11-08T10:12:51.132Z,6.75
2022-11-08T10:15:38.223Z,6.75
2022-11-08T10:18:55.574Z,6.76
2022-11-08T10:21:47.668Z,6.78
2022-11-08T10:25:06.356Z,6.78
2022-11-08T10:27:44.540Z,6.80
2022-11-08T10:30:25.774Z,6.81
2022-11-08T10:32:59.787Z,6.85
2022-11-08T10:36:01.807Z,6.87
2022-11-08T10:38:48.269Z,6.88
2022-11-08T10:41:28.317Z,6.90
2022-11-08T10:44:15.634Z,6.92
2022-11-08T10:47:00.222Z,6.93
2022-11-08T10:49:39.888Z,6.94
2022-11-08T10:52:40.578Z,6.88
2022-11-08T10:55:34.453Z,6.86
2022-11-08T10:58:31.082Z,6.86
2022-11-08T11:01:25.995Z,6.84
2022-11-08T11:03:59.509Z,6.81
2022-11-08T11:06:34.939Z,6.79
2022-11-08T11:09:23.443Z,6.78
2022-11-08T11:12:03.803Z,6.77
2022-11-08T11:14:37.968Z,6.77
2022-11-08T11:17:20.170Z,6.78
2022-11-08T11:19:58.103Z,6.77
2022-11-08T11:22:38.234Z,6.72
2022-11-08T11:25:23.180Z,6.70
2022-11-08T11:28:00.336Z,6.68
2022-11-08T11:30:36.157Z,6.66
2022-11-08T11:33:29.962Z,6.64
2022-11-08T11:36:23.582Z,6.61
2022-11-08T11:39:10.378Z,6.59
2022-11-08T11:41:49.441Z,6.59
2022-11-08T11:44:37.947Z,6.55
2022-11-08T11:47:24.939Z,6.49
2022-11-08T11:49:59.779Z,6.44
2022-11-08T11:52:33.328Z,6.37
2022-11-08T11:55:06.686Z,6.30
2022-11-08T11:57:50.591Z,6.25
2022-11-08T12:00:23.577Z,6.17
2022-11-08T12:03:39.246Z,6.12
2022-11-08T12:06:29.212Z,6.09
2022-11-08T12:09:09.828Z,6.07
2022-11-08T12:11:53.021Z,6.04
2022-11-08T12:14:51.979Z,6.01
2022-11-08T12:17:49.204Z,6.01
2022-11-08T12:20:54.146Z,5.99
2022-11-08T12:23:59.301Z,6.00
2022-11-08T12:26:57.497Z,5.97
2022-11-08T12:30:00.750Z,5.92
2022-11-08T12:32:47.155Z,5.90
2022-11-08T12:35:33.400Z,5.88
2022-11-08T12:38:35.583Z,5.84
2022-11-08T12:41:21.996Z,5.78
2022-11-08T12:44:21.025Z,5.67
2022-11-08T12:47:13.434Z,5.55
2022-11-08T12:50:00.117Z,5.47
2022-11-08T12:52:52.688Z,5.42
2022-11-08T12:55:36.455Z,5.38
2022-11-08T12:58:22.515Z,5.34
2022-11-08T13:01:00.823Z,5.26
2022-11-08T13:04:07.112Z,5.20
2022-11-08T13:07:09.943Z,5.12
2022-11-08T13:10:02.444Z,5.04
2022-11-08T13:13:01.249Z,5.00
2022-11-08T13:15:35.384Z,4.93
2022-11-08T13:18:13.438Z,4.83
2022-11-08T13:20:48.514Z,4.75
2022-11-08T13:23:30.708Z,4.69
2022-11-08T13:26:23.378Z,4.62
2022-11-08T13:28:56.686Z,4.52
2022-11-08T13:31:35.242Z,4.45
2022-11-08T13:34:39.888Z,4.37
2022-11-08T13:37:24.368Z,4.30
2022-11-08T13:40:30.805Z,4.20
2022-11-08T13:43:23.960Z,4.11
2022-11-08T13:46:00.986Z,4.01
2022-11-08T13:48:38.130Z,3.89
2022-11-08T13:51:32.263Z,3.82
2022-11-08T13:54:28.857Z,3.78
2022-11-08T13:57:03.377Z,3.69
2022-11-08T13:59:41.250Z,3.59
2022-11-08T14:02:31.395Z,3.54
2022-11-08T14:05:23.683Z,3.49
2022-11-08T14:08:02.100Z,3.41
2022-11-08T14:11:02.108Z,3.34
2022-11-08T14:13:51.788Z,3.28
2022-11-08T14:16:29.712Z,3.23
2022-11-08T14:19:27.357Z,3.20
2022-11-08T14:22:02.305Z,3.16
2022-11-08T14:24:40.912Z,3.11
2022-11-08T14:27:16.361Z,3.06
2022-11-08T14:29:53.875Z,3.03
2022-11-08T14:32:26.775Z,2.99
2022-11-08T14:35:19.630Z,2.99
2022-11-08T14:37:54.888Z,2.96
2022-11-08T14:40:30.437Z,2.89
2022-11-08T14:43:03.367Z,2.84
2022-11-08T14:45:36.215Z,2.80
2022-11-08T14:48:11.340Z,2.76
2022-11-08T14:50:44.545Z,2.71
2022-11-08T14:53:31.882Z,2.67
2022-11-08T14:56:19.656Z,2.67
2022-11-08T14:58:57.310Z,2.66
2022-11-08T15:01:32.079Z,2.67
2022-11-08T15:04:08.898Z,2.66
2022-11-08T15:06:55.583Z,2.64
2022-11-08T15:09:34.011Z,2.63
2022-11-08T15:12:12.339Z,2.66
2022-11-08T15:14:52.889Z,2.75
2022-11-08T15:17:39.179Z,2.82
2022-11-08T15:20:19.584Z,2.88
2022-11-08T15:22:56.638Z,2.96
2022-11-08T15:25:36.126Z,3.01
2022-11-08T15:28:21.947Z,3.05
2022-11-08T15:30:58.971Z,3.11
2022-11-08T15:33:41.200Z,3.17
2022-11-08T15:36:16.987Z,3.25
2022-11-08T15:38:51.020Z,3.31
2022-11-08T15:41:39.942Z,3.35
2022-11-08T15:44:26.806Z,3.38
2022-11-08T15:46:59.903Z,3.40
2022-11-08T15:49:33.110Z,3.42
2022-11-08T15:52:07.218Z,3.44
2022-11-08T15:54:40.245Z,3.48
2022-11-08T15:57:13.711Z,3.52
2022-11-08T15:59:47.144Z,3.56
2022-11-08T16:02:21.724Z,3.59
2022-11-08T16:04:54.966Z,3.60
2022-11-08T16:07:28.106Z,3.60
2022-11-08T16:10:01.313Z,3.59
2022-11-08T16:12:34.671Z,3.59
2022-11-08T16:15:10.346Z,3.61
2022-11-08T16:17:43.623Z,3.61
2022-11-08T16:20:37.526Z,3.62
2022-11-08T16:23:13.977Z,3.62
2022-11-08T16:25:53.087Z,3.60
2022-11-08T16:28:38.406Z,3.58
2022-11-08T16:31:18.076Z,3.55
2022-11-08T16:33:52.552Z,3.57
2022-11-08T16:36:30.081Z,3.57
2022-11-08T16:39:04.991Z,3.59
2022-11-08T16:41:42.590Z,3.59
2022-11-08T16:44:13.844Z,3.56
2022-11-08T16:46:48.521Z,3.52
2022-11-08T16:49:27.328Z,3.52
2022-11-08T16:52:00.394Z,3.53
2022-11-08T16:54:33.674Z,3.51
2022-11-08T16:57:33.098Z,3.52
2022-11-08T16:59:41.408Z,3.55
2022-11-08T17:02:32.706Z,3.56
2022-11-08T17:05:06.275Z,3.55
2022-11-08T17:07:40.200Z,3.58
2022-11-08T17:10:18.749Z,3.55
2022-11-08T17:12:52.297Z,3.58
2022-11-08T17:15:29.144Z,3.59
2022-11-08T17:18:03.486Z,3.59
2022-11-08T17:20:36.602Z,3.58
2022-11-08T17:23:10.728Z,3.58
2022-11-08T17:25:44.722Z,3.57
2022-11-08T17:28:17.765Z,3.59
2022-11-08T17:30:51.505Z,3.65
2022-11-08T17:33:24.495Z,3.69
2022-11-08T17:35:57.407Z,3.73
2022-11-08T17:38:30.190Z,3.77
2022-11-08T17:41:15.169Z,3.75
2022-11-08T17:43:48.098Z,3.72
2022-11-08T17:46:21.066Z,3.73
2022-11-08T17:48:55.022Z,3.77
2022-11-08T17:51:27.917Z,3.83
2022-11-08T17:54:00.845Z,3.87
2022-11-08T17:56:33.996Z,3.90
2022-11-08T17:59:06.898Z,3.94
2022-11-08T18:01:40.294Z,3.98
2022-11-08T18:04:13.787Z,3.99
2022-11-08T18:06:46.976Z,4.02
2022-11-08T18:09:20.365Z,4.06
2022-11-08T18:11:54.580Z,4.09
2022-11-08T18:14:29.171Z,4.10
2022-11-08T18:17:05.366Z,4.08
2022-11-08T18:19:39.321Z,4.04
2022-11-08T18:22:13.173Z,4.05
2022-11-08T18:24:49.096Z,4.07
2022-11-08T18:27:21.295Z,4.11
2022-11-08T18:29:55.765Z,4.16
2022-11-08T18:32:29.298Z,4.21
2022-11-08T18:35:04.181Z,4.22
2022-11-08T18:37:37.579Z,4.24
2022-11-08T18:40:13.137Z,4.24
2022-11-08T18:42:46.719Z,4.25
2022-11-08T18:45:20.804Z,4.30
2022-11-08T18:47:54.765Z,4.34
2022-11-08T18:50:28.040Z,4.35
2022-11-08T18:53:03.986Z,4.35
2022-11-08T18:55:40.561Z,4.33
2022-11-08T18:58:18.258Z,4.34
2022-11-08T19:00:56.229Z,4.38
2022-11-08T19:03:30.221Z,4.41
2022-11-08T19:06:03.547Z,4.43
2022-11-08T19:08:38.849Z,4.44
2022-11-08T19:11:15.581Z,4.47
2022-11-08T19:13:49.834Z,4.50
2022-11-08T19:16:25.016Z,4.52
2022-11-08T19:18:58.145Z,4.53
2022-11-08T19:21:33.649Z,4.52
2022-11-08T19:24:09.322Z,4.54
2022-11-08T19:26:43.568Z,4.61
2022-11-08T19:29:16.809Z,4.66
2022-11-08T19:31:50.410Z,4.66
2022-11-08T19:34:23.738Z,4.68
2022-11-08T19:36:57.982Z,4.67
2022-11-08T19:39:31.193Z,4.68
2022-11-08T19:42:04.520Z,4.67
2022-11-08T19:44:37.584Z,4.64
2022-11-08T19:47:11.201Z,4.62
2022-11-08T19:49:44.353Z,4.63
2022-11-08T19:52:18.132Z,4.66
2022-11-08T19:54:51.908Z,4.67
2022-11-08T19:57:25.331Z,4.64
2022-11-08T19:59:58.204Z,4.63
2022-11-08T20:02:31.487Z,4.66
2022-11-08T20:05:04.993Z,4.66
2022-11-08T20:07:38.278Z,4.67
2022-11-08T20:10:12.073Z,4.70
2022-11-08T20:12:47.055Z,4.71
2022-11-08T20:15:20.702Z,4.72
2022-11-08T20:17:53.598Z,4.75
2022-11-08T20:20:26.556Z,4.82
2022-11-08T20:22:59.996Z,4.86
2022-11-08T20:25:35.269Z,4.88
2022-11-08T20:28:08.312Z,4.90
2022-11-08T20:30:41.932Z,4.88
2022-11-08T20:33:14.865Z,4.89
2022-11-08T20:35:48.292Z,4.92
2022-11-08T20:38:21.697Z,4.94
2022-11-08T20:40:55.286Z,4.97
2022-11-08T20:43:29.650Z,4.97
2022-11-08T20:46:09.484Z,4.98
2022-11-08T20:48:44.273Z,5.00
2022-11-08T20:51:19.739Z,5.01
2022-11-08T20:53:52.659Z,5.01
2022-11-08T20:56:26.326Z,5.03
2022-11-08T20:58:59.485Z,5.04
2022-11-08T21:01:34.596Z,5.07
2022-11-08T21:04:09.205Z,5.05
2022-11-08T21:06:42.433Z,5.00
2022-11-08T21:09:36.435Z,4.96
2022-11-08T21:11:49.883Z,4.97
2022-11-08T21:14:23.953Z,4.99
2022-11-08T21:19:32.466Z,4.96
2022-11-08T21:22:17.946Z,4.94
2022-11-08T21:24:52.345Z,4.93
2022-11-08T21:27:29.540Z,4.93
2022-11-08T21:29:59.825Z,4.92
2022-11-08T21:32:33.198Z,4.93
2022-11-08T21:35:07.257Z,4.93
2022-11-08T21:37:40.030Z,4.93
2022-11-08T21:40:14.055Z,4.93
2022-11-08T21:42:48.901Z,4.92
2022-11-08T21:45:21.743Z,4.91
2022-11-08T21:47:55.856Z,4.90
2022-11-08T21:50:29.260Z,4.94
2022-11-08T21:53:05.010Z,4.95
2022-11-08T21:55:38.071Z,4.97
2022-11-08T21:58:11.189Z,5.00
2022-11-08T22:00:44.744Z,4.99
2022-11-08T22:03:17.898Z,4.95
2022-11-08T22:05:51.864Z,4.94
2022-11-08T22:08:25.182Z,4.92
2022-11-08T22:10:58.755Z,4.95
2022-11-08T22:13:32.446Z,4.98
2022-11-08T22:16:06.690Z,5.02
2022-11-08T22:21:32.100Z,5.00
2022-11-08T22:24:07.010Z,4.98
2022-11-08T22:26:42.015Z,4.99
2022-11-08T22:29:16.036Z,5.01
2022-11-08T22:31:51.651Z,5.04
2022-11-08T22:34:25.047Z,5.05
2022-11-08T22:36:58.343Z,5.06
2022-11-08T22:39:32.041Z,5.05
2022-11-08T22:42:05.494Z,5.03
2022-11-08T22:44:39.507Z,5.01
2022-11-08T22:47:12.384Z,5.00
2022-11-08T22:49:45.944Z,5.01
2022-11-08T22:52:18.749Z,5.01
2022-11-08T22:54:51.880Z,4.98
2022-11-08T22:57:25.031Z,5.00
2022-11-08T22:59:57.901Z,5.01
2022-11-08T23:02:33.270Z,5.02
2022-11-08T23:05:06.095Z,5.02
2022-11-08T23:07:38.939Z,5.02
2022-11-08T23:10:13.172Z,5.01
2022-11-08T23:13:04.400Z,4.99
2022-11-08T23:15:56.233Z,4.96
2022-11-08T23:18:29.873Z,4.96
2022-11-08T23:21:20.461Z,4.95
2022-11-08T23:23:55.674Z,4.97
2022-11-08T23:26:46.483Z,4.98
2022-11-08T23:29:37.546Z,4.98
2022-11-08T23:32:10.436Z,5.01
2022-11-08T23:34:43.572Z,4.98
2022-11-08T23:37:16.559Z,4.86
2022-11-08T23:40:07.465Z,4.80
2022-11-08T23:42:58.511Z,4.76
2022-11-08T23:45:31.709Z,4.71
2022-11-08T23:48:05.957Z,4.65
2022-11-08T23:50:39.329Z,4.63
2022-11-08T23:53:13.899Z,4.63
2022-11-08T23:55:46.729Z,4.62
2022-11-08T23:58:19.767Z,4.65
